sensor_id;sensor_type;location;lat;lon;timestamp;pressure;altitude;pressure_sealevel;temperature;humidity
54870;BME280;40756;-37.950;145.008;2022-10-15T00:01:39;101758.63;;;16.42;36.75
54870;BME280;40756;-37.950;145.008;2022-10-15T00:04:08;101754.10;;;17.23;36.80
54870;BME280;40756;-37.950;145.008;2022-10-15T00:06:38;101755.63;;;16.95;36.31
54870;BME280;40756;-37.950;145.008;2022-10-15T00:09:07;101751.51;;;17.45;36.53
54870;BME280;40756;-37.950;145.008;2022-10-15T00:11:37;101746.97;;;16.73;35.24
54870;BME280;40756;-37.950;145.008;2022-10-15T00:14:07;101749.19;;;16.70;35.62
54870;BME280;40756;-37.950;145.008;2022-10-15T00:16:37;101742.33;;;17.07;35.95
54870;BME280;40756;-37.950;145.008;2022-10-15T00:19:08;101736.35;;;16.92;34.62
54870;BME280;40756;-37.950;145.008;2022-10-15T00:21:37;101733.87;;;17.78;34.97
54870;BME280;40756;-37.950;145.008;2022-10-15T00:24:07;101735.02;;;16.62;34.71
54870;BME280;40756;-37.950;145.008;2022-10-15T00:26:37;101731.31;;;16.95;33.45
54870;BME280;40756;-37.950;145.008;2022-10-15T00:29:07;101728.11;;;17.54;34.24
54870;BME280;40756;-37.950;145.008;2022-10-15T00:31:36;101722.23;;;17.76;33.35
54870;BME280;40756;-37.950;145.008;2022-10-15T00:34:06;101719.41;;;17.46;31.96
54870;BME280;40756;-37.950;145.008;2022-10-15T00:36:36;101713.86;;;17.79;33.30
54870;BME280;40756;-37.950;145.008;2022-10-15T00:39:06;101711.23;;;18.32;30.88
54870;BME280;40756;-37.950;145.008;2022-10-15T00:41:39;101704.57;;;18.52;30.46
54870;BME280;40756;-37.950;145.008;2022-10-15T00:45:15;101702.83;;;18.89;30.34
54870;BME280;40756;-37.950;145.008;2022-10-15T00:47:48;101701.68;;;18.68;29.88
54870;BME280;40756;-37.950;145.008;2022-10-15T00:50:20;101701.03;;;18.43;30.26
54870;BME280;40756;-37.950;145.008;2022-10-15T00:52:59;101695.19;;;18.93;28.37
54870;BME280;40756;-37.950;145.008;2022-10-15T00:55:32;101695.68;;;19.00;29.87
54870;BME280;40756;-37.950;145.008;2022-10-15T00:58:04;101697.33;;;18.86;30.15
54870;BME280;40756;-37.950;145.008;2022-10-15T01:00:35;101696.36;;;18.44;30.82
54870;BME280;40756;-37.950;145.008;2022-10-15T01:03:04;101693.22;;;19.00;31.38
54870;BME280;40756;-37.950;145.008;2022-10-15T01:05:35;101693.39;;;18.30;31.69
54870;BME280;40756;-37.950;145.008;2022-10-15T01:08:05;101693.04;;;18.72;30.62
54870;BME280;40756;-37.950;145.008;2022-10-15T01:10:39;101688.20;;;18.67;31.01
54870;BME280;40756;-37.950;145.008;2022-10-15T01:13:16;101690.51;;;18.88;31.49
54870;BME280;40756;-37.950;145.008;2022-10-15T01:15:57;101689.23;;;18.45;33.90
54870;BME280;40756;-37.950;145.008;2022-10-15T01:18:33;101682.76;;;18.11;33.01
54870;BME280;40756;-37.950;145.008;2022-10-15T01:21:11;101682.77;;;19.47;30.76
54870;BME280;40756;-37.950;145.008;2022-10-15T01:24:08;101684.41;;;19.04;30.50
54870;BME280;40756;-37.950;145.008;2022-10-15T01:27:29;101687.15;;;19.15;30.70
54870;BME280;40756;-37.950;145.008;2022-10-15T01:30:30;101673.27;;;20.38;28.85
54870;BME280;40756;-37.950;145.008;2022-10-15T01:33:33;101673.63;;;20.24;29.40
54870;BME280;40756;-37.950;145.008;2022-10-15T01:36:12;101674.85;;;18.79;28.76
54870;BME280;40756;-37.950;145.008;2022-10-15T01:38:53;101677.76;;;19.61;29.47
54870;BME280;40756;-37.950;145.008;2022-10-15T01:41:30;101678.91;;;19.48;27.66
54870;BME280;40756;-37.950;145.008;2022-10-15T01:44:05;101673.71;;;18.41;28.89
54870;BME280;40756;-37.950;145.008;2022-10-15T01:46:39;101675.45;;;18.04;29.53
54870;BME280;40756;-37.950;145.008;2022-10-15T01:49:14;101672.53;;;18.69;30.26
54870;BME280;40756;-37.950;145.008;2022-10-15T01:51:46;101674.07;;;18.21;30.58
54870;BME280;40756;-37.950;145.008;2022-10-15T01:54:17;101671.20;;;18.62;30.75
54870;BME280;40756;-37.950;145.008;2022-10-15T01:56:49;101665.82;;;19.42;31.06
54870;BME280;40756;-37.950;145.008;2022-10-15T01:59:23;101664.98;;;19.73;30.60
54870;BME280;40756;-37.950;145.008;2022-10-15T02:01:54;101658.21;;;18.78;29.99
54870;BME280;40756;-37.950;145.008;2022-10-15T02:04:25;101657.91;;;19.77;29.13
54870;BME280;40756;-37.950;145.008;2022-10-15T02:07:00;101662.91;;;19.12;30.15
54870;BME280;40756;-37.950;145.008;2022-10-15T02:09:40;101655.54;;;20.17;28.66
54870;BME280;40756;-37.950;145.008;2022-10-15T02:12:23;101651.57;;;20.97;28.64
54870;BME280;40756;-37.950;145.008;2022-10-15T02:15:00;101653.16;;;19.65;27.72
54870;BME280;40756;-37.950;145.008;2022-10-15T02:17:37;101648.69;;;19.72;28.91
54870;BME280;40756;-37.950;145.008;2022-10-15T02:20:14;101639.25;;;20.80;27.98
54870;BME280;40756;-37.950;145.008;2022-10-15T02:22:51;101640.08;;;20.50;27.50
54870;BME280;40756;-37.950;145.008;2022-10-15T02:25:25;101640.08;;;19.79;27.06
54870;BME280;40756;-37.950;145.008;2022-10-15T02:27:57;101638.53;;;20.42;26.81
54870;BME280;40756;-37.950;145.008;2022-10-15T02:30:28;101635.56;;;20.04;27.70
54870;BME280;40756;-37.950;145.008;2022-10-15T02:32:59;101627.85;;;20.58;26.65
54870;BME280;40756;-37.950;145.008;2022-10-15T02:35:29;101630.70;;;20.60;25.94
54870;BME280;40756;-37.950;145.008;2022-10-15T02:38:04;101631.28;;;20.66;26.24
54870;BME280;40756;-37.950;145.008;2022-10-15T02:40:37;101626.82;;;21.37;24.74
54870;BME280;40756;-37.950;145.008;2022-10-15T02:43:12;101628.85;;;22.27;25.63
54870;BME280;40756;-37.950;145.008;2022-10-15T02:45:42;101629.76;;;21.49;25.36
54870;BME280;40756;-37.950;145.008;2022-10-15T02:48:12;101631.79;;;21.46;24.99
54870;BME280;40756;-37.950;145.008;2022-10-15T02:50:41;101631.76;;;21.62;25.38
54870;BME280;40756;-37.950;145.008;2022-10-15T02:53:11;101627.27;;;21.73;25.91
54870;BME280;40756;-37.950;145.008;2022-10-15T02:55:40;101622.91;;;21.73;23.90
54870;BME280;40756;-37.950;145.008;2022-10-15T02:58:10;101619.23;;;22.45;25.11
54870;BME280;40756;-37.950;145.008;2022-10-15T03:00:39;101617.33;;;21.12;25.04
54870;BME280;40756;-37.950;145.008;2022-10-15T03:03:09;101615.49;;;21.69;25.31
54870;BME280;40756;-37.950;145.008;2022-10-15T03:05:39;101615.34;;;21.27;24.88
54870;BME280;40756;-37.950;145.008;2022-10-15T03:08:08;101620.61;;;21.30;27.01
54870;BME280;40756;-37.950;145.008;2022-10-15T03:10:38;101628.90;;;20.27;27.13
54870;BME280;40756;-37.950;145.008;2022-10-15T03:13:08;101628.07;;;19.90;26.40
54870;BME280;40756;-37.950;145.008;2022-10-15T03:15:37;101621.16;;;19.77;27.68
54870;BME280;40756;-37.950;145.008;2022-10-15T03:18:07;101617.78;;;19.86;28.15
54870;BME280;40756;-37.950;145.008;2022-10-15T03:20:38;101613.87;;;19.94;27.22
54870;BME280;40756;-37.950;145.008;2022-10-15T03:23:07;101613.88;;;19.30;28.31
54870;BME280;40756;-37.950;145.008;2022-10-15T03:25:37;101608.49;;;19.44;27.98
54870;BME280;40756;-37.950;145.008;2022-10-15T03:28:06;101602.64;;;20.28;27.89
54870;BME280;40756;-37.950;145.008;2022-10-15T03:30:36;101598.49;;;19.87;27.17
54870;BME280;40756;-37.950;145.008;2022-10-15T03:33:05;101599.25;;;19.94;28.11
54870;BME280;40756;-37.950;145.008;2022-10-15T03:35:35;101599.13;;;19.17;27.76
54870;BME280;40756;-37.950;145.008;2022-10-15T03:38:05;101592.33;;;20.15;27.54
54870;BME280;40756;-37.950;145.008;2022-10-15T03:40:35;101588.53;;;20.41;27.63
54870;BME280;40756;-37.950;145.008;2022-10-15T03:43:05;101587.23;;;20.03;26.81
54870;BME280;40756;-37.950;145.008;2022-10-15T03:45:34;101582.91;;;20.44;27.03
54870;BME280;40756;-37.950;145.008;2022-10-15T03:48:04;101578.85;;;20.08;26.45
54870;BME280;40756;-37.950;145.008;2022-10-15T03:50:34;101579.81;;;20.44;27.84
54870;BME280;40756;-37.950;145.008;2022-10-15T03:53:05;101581.77;;;19.80;28.41
54870;BME280;40756;-37.950;145.008;2022-10-15T03:55:34;101577.29;;;20.31;28.22
54870;BME280;40756;-37.950;145.008;2022-10-15T03:58:04;101586.52;;;19.39;27.63
54870;BME280;40756;-37.950;145.008;2022-10-15T04:00:33;101583.51;;;19.68;27.02
54870;BME280;40756;-37.950;145.008;2022-10-15T04:03:03;101582.03;;;19.53;26.73
54870;BME280;40756;-37.950;145.008;2022-10-15T04:05:32;101575.75;;;19.68;27.15
54870;BME280;40756;-37.950;145.008;2022-10-15T04:08:02;101572.18;;;19.89;27.83
54870;BME280;40756;-37.950;145.008;2022-10-15T04:10:31;101569.18;;;20.96;27.65
54870;BME280;40756;-37.950;145.008;2022-10-15T04:13:01;101569.38;;;20.62;26.69
54870;BME280;40756;-37.950;145.008;2022-10-15T04:15:30;101567.47;;;20.66;25.68
54870;BME280;40756;-37.950;145.008;2022-10-15T04:18:00;101571.04;;;20.43;26.92
54870;BME280;40756;-37.950;145.008;2022-10-15T04:20:29;101563.45;;;20.38;27.54
54870;BME280;40756;-37.950;145.008;2022-10-15T04:22:59;101557.68;;;20.54;25.68
54870;BME280;40756;-37.950;145.008;2022-10-15T04:25:29;101554.20;;;20.30;25.14
54870;BME280;40756;-37.950;145.008;2022-10-15T04:27:59;101552.88;;;21.15;26.73
54870;BME280;40756;-37.950;145.008;2022-10-15T04:30:28;101549.71;;;20.74;26.60
54870;BME280;40756;-37.950;145.008;2022-10-15T04:32:58;101545.29;;;21.00;25.27
54870;BME280;40756;-37.950;145.008;2022-10-15T04:35:27;101541.28;;;19.48;26.47
54870;BME280;40756;-37.950;145.008;2022-10-15T04:37:58;101541.28;;;19.66;26.95
54870;BME280;40756;-37.950;145.008;2022-10-15T04:40:27;101540.28;;;19.52;27.83
54870;BME280;40756;-37.950;145.008;2022-10-15T04:42:57;101539.33;;;19.30;27.93
54870;BME280;40756;-37.950;145.008;2022-10-15T04:45:26;101539.44;;;18.76;27.95
54870;BME280;40756;-37.950;145.008;2022-10-15T04:47:57;101543.68;;;19.46;28.80
54870;BME280;40756;-37.950;145.008;2022-10-15T04:50:26;101549.14;;;18.82;29.39
54870;BME280;40756;-37.950;145.008;2022-10-15T04:52:56;101547.36;;;18.69;30.13
54870;BME280;40756;-37.950;145.008;2022-10-15T04:55:27;101543.55;;;18.28;29.90
54870;BME280;40756;-37.950;145.008;2022-10-15T04:57:56;101545.76;;;18.40;30.24
54870;BME280;40756;-37.950;145.008;2022-10-15T05:00:26;101542.55;;;18.54;29.94
54870;BME280;40756;-37.950;145.008;2022-10-15T05:02:56;101538.27;;;18.93;30.31
54870;BME280;40756;-37.950;145.008;2022-10-15T05:05:25;101532.35;;;19.25;30.33
54870;BME280;40756;-37.950;145.008;2022-10-15T05:07:58;101532.85;;;19.02;30.22
54870;BME280;40756;-37.950;145.008;2022-10-15T05:10:28;101531.39;;;18.82;29.43
54870;BME280;40756;-37.950;145.008;2022-10-15T05:12:57;101535.77;;;19.33;29.52
54870;BME280;40756;-37.950;145.008;2022-10-15T05:15:27;101535.28;;;19.19;28.93
54870;BME280;40756;-37.950;145.008;2022-10-15T05:17:56;101527.99;;;20.31;28.41
54870;BME280;40756;-37.950;145.008;2022-10-15T05:20:26;101529.20;;;19.95;27.84
54870;BME280;40756;-37.950;145.008;2022-10-15T05:22:55;101532.61;;;20.64;27.29
54870;BME280;40756;-37.950;145.008;2022-10-15T05:25:26;101526.31;;;20.69;27.14
54870;BME280;40756;-37.950;145.008;2022-10-15T05:27:56;101525.83;;;21.05;27.07
54870;BME280;40756;-37.950;145.008;2022-10-15T05:30:26;101526.21;;;20.88;26.70
54870;BME280;40756;-37.950;145.008;2022-10-15T05:32:55;101521.42;;;21.14;25.30
54870;BME280;40756;-37.950;145.008;2022-10-15T05:35:24;101523.72;;;21.46;26.68
54870;BME280;40756;-37.950;145.008;2022-10-15T05:37:54;101521.85;;;21.45;25.91
54870;BME280;40756;-37.950;145.008;2022-10-15T05:40:23;101524.77;;;21.87;26.28
54870;BME280;40756;-37.950;145.008;2022-10-15T05:42:53;101528.56;;;20.82;26.21
54870;BME280;40756;-37.950;145.008;2022-10-15T05:45:22;101524.55;;;21.18;26.74
54870;BME280;40756;-37.950;145.008;2022-10-15T05:47:55;101525.50;;;20.52;27.82
54870;BME280;40756;-37.950;145.008;2022-10-15T05:50:24;101524.84;;;20.92;27.43
54870;BME280;40756;-37.950;145.008;2022-10-15T05:52:55;101523.73;;;20.38;27.07
54870;BME280;40756;-37.950;145.008;2022-10-15T05:55:25;101524.92;;;20.58;27.91
54870;BME280;40756;-37.950;145.008;2022-10-15T05:57:54;101528.65;;;19.50;27.93
54870;BME280;40756;-37.950;145.008;2022-10-15T06:00:28;101530.02;;;19.73;29.22
54870;BME280;40756;-37.950;145.008;2022-10-15T06:02:58;101529.85;;;19.62;29.58
54870;BME280;40756;-37.950;145.008;2022-10-15T06:05:27;101527.97;;;20.20;29.85
54870;BME280;40756;-37.950;145.008;2022-10-15T06:07:57;101534.12;;;20.32;28.74
54870;BME280;40756;-37.950;145.008;2022-10-15T06:10:26;101532.40;;;20.61;28.02
54870;BME280;40756;-37.950;145.008;2022-10-15T06:12:56;101529.99;;;20.70;28.46
54870;BME280;40756;-37.950;145.008;2022-10-15T06:15:25;101534.29;;;20.86;27.93
54870;BME280;40756;-37.950;145.008;2022-10-15T06:17:55;101537.46;;;20.57;27.52
54870;BME280;40756;-37.950;145.008;2022-10-15T06:20:24;101533.90;;;19.66;28.08
54870;BME280;40756;-37.950;145.008;2022-10-15T06:22:57;101529.61;;;20.23;28.01
54870;BME280;40756;-37.950;145.008;2022-10-15T06:25:28;101526.63;;;20.50;28.49
54870;BME280;40756;-37.950;145.008;2022-10-15T06:28:01;101523.76;;;21.11;27.34
54870;BME280;40756;-37.950;145.008;2022-10-15T06:30:31;101529.88;;;20.60;27.13
54870;BME280;40756;-37.950;145.008;2022-10-15T06:33:00;101533.18;;;20.67;27.16
54870;BME280;40756;-37.950;145.008;2022-10-15T06:35:30;101532.33;;;20.93;27.62
54870;BME280;40756;-37.950;145.008;2022-10-15T06:38:01;101533.82;;;20.17;27.23
54870;BME280;40756;-37.950;145.008;2022-10-15T06:40:31;101538.25;;;19.96;28.27
54870;BME280;40756;-37.950;145.008;2022-10-15T06:43:04;101540.51;;;19.75;28.00
54870;BME280;40756;-37.950;145.008;2022-10-15T06:45:34;101549.38;;;19.93;28.92
54870;BME280;40756;-37.950;145.008;2022-10-15T06:48:05;101550.48;;;19.73;28.17
54870;BME280;40756;-37.950;145.008;2022-10-15T06:50:37;101549.36;;;20.18;28.70
54870;BME280;40756;-37.950;145.008;2022-10-15T06:53:07;101547.54;;;19.97;28.28
54870;BME280;40756;-37.950;145.008;2022-10-15T06:55:37;101542.00;;;20.62;28.19
54870;BME280;40756;-37.950;145.008;2022-10-15T06:58:06;101542.64;;;20.73;27.18
54870;BME280;40756;-37.950;145.008;2022-10-15T07:00:35;101548.48;;;21.12;27.06
54870;BME280;40756;-37.950;145.008;2022-10-15T07:03:06;101552.04;;;20.42;27.24
54870;BME280;40756;-37.950;145.008;2022-10-15T07:05:35;101553.16;;;20.51;27.32
54870;BME280;40756;-37.950;145.008;2022-10-15T07:08:05;101559.62;;;20.31;27.58
54870;BME280;40756;-37.950;145.008;2022-10-15T07:10:34;101564.00;;;20.27;27.23
54870;BME280;40756;-37.950;145.008;2022-10-15T07:13:04;101562.47;;;20.77;26.94
54870;BME280;40756;-37.950;145.008;2022-10-15T07:15:33;101564.62;;;20.08;27.68
54870;BME280;40756;-37.950;145.008;2022-10-15T07:18:03;101567.16;;;20.30;27.85
54870;BME280;40756;-37.950;145.008;2022-10-15T07:20:32;101564.58;;;20.70;27.64
54870;BME280;40756;-37.950;145.008;2022-10-15T07:23:02;101566.77;;;20.29;27.63
54870;BME280;40756;-37.950;145.008;2022-10-15T07:25:32;101570.92;;;20.21;27.61
54870;BME280;40756;-37.950;145.008;2022-10-15T07:28:03;101568.73;;;19.87;29.28
54870;BME280;40756;-37.950;145.008;2022-10-15T07:30:33;101566.62;;;20.39;28.37
54870;BME280;40756;-37.950;145.008;2022-10-15T07:33:02;101569.49;;;20.49;29.07
54870;BME280;40756;-37.950;145.008;2022-10-15T07:35:31;101572.32;;;20.34;27.76
54870;BME280;40756;-37.950;145.008;2022-10-15T07:38:01;101573.04;;;20.83;29.37
54870;BME280;40756;-37.950;145.008;2022-10-15T07:40:31;101576.80;;;20.04;28.81
54870;BME280;40756;-37.950;145.008;2022-10-15T07:43:01;101582.18;;;20.02;28.38
54870;BME280;40756;-37.950;145.008;2022-10-15T07:45:30;101581.96;;;20.01;29.30
54870;BME280;40756;-37.950;145.008;2022-10-15T07:48:00;101584.14;;;19.93;29.52
54870;BME280;40756;-37.950;145.008;2022-10-15T07:50:29;101588.49;;;19.89;28.81
54870;BME280;40756;-37.950;145.008;2022-10-15T07:52:59;101585.78;;;19.55;28.64
54870;BME280;40756;-37.950;145.008;2022-10-15T07:55:28;101586.49;;;19.86;29.94
54870;BME280;40756;-37.950;145.008;2022-10-15T07:57:58;101590.60;;;19.78;30.90
54870;BME280;40756;-37.950;145.008;2022-10-15T08:00:28;101595.11;;;19.84;32.23
54870;BME280;40756;-37.950;145.008;2022-10-15T08:02:57;101600.99;;;19.43;32.01
54870;BME280;40756;-37.950;145.008;2022-10-15T08:05:27;101600.93;;;19.56;31.88
54870;BME280;40756;-37.950;145.008;2022-10-15T08:07:56;101603.16;;;19.21;32.16
54870;BME280;40756;-37.950;145.008;2022-10-15T08:10:26;101606.84;;;19.36;33.35
54870;BME280;40756;-37.950;145.008;2022-10-15T08:12:55;101608.06;;;18.99;32.68
54870;BME280;40756;-37.950;145.008;2022-10-15T08:15:25;101611.82;;;19.29;33.33
54870;BME280;40756;-37.950;145.008;2022-10-15T08:17:54;101612.07;;;18.93;33.41
54870;BME280;40756;-37.950;145.008;2022-10-15T08:20:24;101617.81;;;18.98;33.67
54870;BME280;40756;-37.950;145.008;2022-10-15T08:22:54;101620.40;;;18.97;34.19
54870;BME280;40756;-37.950;145.008;2022-10-15T08:25:23;101621.98;;;18.91;33.68
54870;BME280;40756;-37.950;145.008;2022-10-15T08:27:54;101621.42;;;18.89;33.31
54870;BME280;40756;-37.950;145.008;2022-10-15T08:30:23;101620.37;;;18.87;33.11
54870;BME280;40756;-37.950;145.008;2022-10-15T08:32:53;101622.51;;;18.82;33.60
54870;BME280;40756;-37.950;145.008;2022-10-15T08:35:23;101621.24;;;18.40;34.44
54870;BME280;40756;-37.950;145.008;2022-10-15T08:37:54;101625.37;;;18.40;34.50
54870;BME280;40756;-37.950;145.008;2022-10-15T08:40:24;101631.70;;;18.30;34.91
54870;BME280;40756;-37.950;145.008;2022-10-15T08:42:54;101633.79;;;18.38;34.70
54870;BME280;40756;-37.950;145.008;2022-10-15T08:45:27;101633.11;;;18.61;34.39
54870;BME280;40756;-37.950;145.008;2022-10-15T08:48:00;101634.68;;;18.60;34.69
54870;BME280;40756;-37.950;145.008;2022-10-15T08:50:37;101636.80;;;18.55;34.30
54870;BME280;40756;-37.950;145.008;2022-10-15T08:53:12;101639.20;;;18.19;35.16
54870;BME280;40756;-37.950;145.008;2022-10-15T08:55:44;101640.02;;;18.07;36.00
54870;BME280;40756;-37.950;145.008;2022-10-15T08:58:19;101641.17;;;18.47;36.46
54870;BME280;40756;-37.950;145.008;2022-10-15T09:00:55;101650.17;;;18.12;36.53
54870;BME280;40756;-37.950;145.008;2022-10-15T09:03:32;101657.25;;;18.04;37.23
54870;BME280;40756;-37.950;145.008;2022-10-15T09:06:11;101662.98;;;17.90;38.10
54870;BME280;40756;-37.950;145.008;2022-10-15T09:08:51;101662.26;;;18.15;37.30
54870;BME280;40756;-37.950;145.008;2022-10-15T09:11:36;101664.08;;;17.72;37.34
54870;BME280;40756;-37.950;145.008;2022-10-15T09:14:14;101667.19;;;18.18;36.50
54870;BME280;40756;-37.950;145.008;2022-10-15T09:16:46;101670.52;;;18.13;37.30
54870;BME280;40756;-37.950;145.008;2022-10-15T09:19:18;101671.68;;;17.92;37.18
54870;BME280;40756;-37.950;145.008;2022-10-15T09:21:50;101676.71;;;17.86;37.03
54870;BME280;40756;-37.950;145.008;2022-10-15T09:24:22;101682.96;;;17.34;37.34
54870;BME280;40756;-37.950;145.008;2022-10-15T09:26:59;101689.66;;;17.29;41.06
54870;BME280;40756;-37.950;145.008;2022-10-15T09:29:40;101690.67;;;17.07;44.97
54870;BME280;40756;-37.950;145.008;2022-10-15T09:32:18;101692.33;;;17.31;44.95
54870;BME280;40756;-37.950;145.008;2022-10-15T09:34:53;101696.28;;;17.05;45.41
54870;BME280;40756;-37.950;145.008;2022-10-15T09:37:28;101698.84;;;16.93;45.80
54870;BME280;40756;-37.950;145.008;2022-10-15T09:40:19;101703.66;;;17.18;45.87
54870;BME280;40756;-37.950;145.008;2022-10-15T09:42:53;101713.85;;;16.99;45.37
54870;BME280;40756;-37.950;145.008;2022-10-15T09:45:24;101723.00;;;17.01;46.09
54870;BME280;40756;-37.950;145.008;2022-10-15T09:47:57;101734.23;;;16.51;47.66
54870;BME280;40756;-37.950;145.008;2022-10-15T09:50:32;101738.78;;;15.84;49.30
54870;BME280;40756;-37.950;145.008;2022-10-15T09:53:15;101746.73;;;16.50;48.40
54870;BME280;40756;-37.950;145.008;2022-10-15T09:55:49;101754.19;;;16.51;47.98
54870;BME280;40756;-37.950;145.008;2022-10-15T09:58:23;101755.83;;;16.21;48.09
54870;BME280;40756;-37.950;145.008;2022-10-15T10:00:58;101760.34;;;15.63;50.94
54870;BME280;40756;-37.950;145.008;2022-10-15T10:03:35;101758.62;;;15.50;52.36
54870;BME280;40756;-37.950;145.008;2022-10-15T10:06:07;101755.99;;;15.48;52.56
54870;BME280;40756;-37.950;145.008;2022-10-15T10:08:40;101753.48;;;15.02;53.21
54870;BME280;40756;-37.950;145.008;2022-10-15T10:11:15;101755.11;;;15.49;52.46
54870;BME280;40756;-37.950;145.008;2022-10-15T10:13:51;101755.55;;;15.08;52.82
54870;BME280;40756;-37.950;145.008;2022-10-15T10:16:23;101758.88;;;15.06;52.98
54870;BME280;40756;-37.950;145.008;2022-10-15T10:19:05;101759.41;;;15.21;53.27
54870;BME280;40756;-37.950;145.008;2022-10-15T10:21:41;101765.93;;;15.23;53.71
54870;BME280;40756;-37.950;145.008;2022-10-15T10:24:23;101765.03;;;14.83;53.80
54870;BME280;40756;-37.950;145.008;2022-10-15T10:26:54;101766.78;;;15.51;52.87
54870;BME280;40756;-37.950;145.008;2022-10-15T10:29:25;101767.20;;;15.40;52.43
54870;BME280;40756;-37.950;145.008;2022-10-15T10:31:57;101772.84;;;15.51;52.41
54870;BME280;40756;-37.950;145.008;2022-10-15T10:34:28;101781.61;;;15.44;52.41
54870;BME280;40756;-37.950;145.008;2022-10-15T10:37:03;101788.55;;;15.50;52.02
54870;BME280;40756;-37.950;145.008;2022-10-15T10:39:34;101795.00;;;15.48;52.35
54870;BME280;40756;-37.950;145.008;2022-10-15T10:42:05;101804.88;;;15.13;52.42
54870;BME280;40756;-37.950;145.008;2022-10-15T10:44:37;101808.58;;;15.10;53.13
54870;BME280;40756;-37.950;145.008;2022-10-15T10:47:16;101806.68;;;15.27;52.14
54870;BME280;40756;-37.950;145.008;2022-10-15T10:49:48;101806.17;;;15.69;51.92
54870;BME280;40756;-37.950;145.008;2022-10-15T10:52:24;101808.39;;;15.49;52.13
54870;BME280;40756;-37.950;145.008;2022-10-15T10:54:59;101813.49;;;15.50;52.13
54870;BME280;40756;-37.950;145.008;2022-10-15T10:57:41;101814.58;;;15.69;51.69
54870;BME280;40756;-37.950;145.008;2022-10-15T11:00:16;101810.81;;;15.73;51.39
54870;BME280;40756;-37.950;145.008;2022-10-15T11:02:47;101810.64;;;15.97;50.79
54870;BME280;40756;-37.950;145.008;2022-10-15T11:05:21;101814.01;;;15.71;51.08
54870;BME280;40756;-37.950;145.008;2022-10-15T11:08:01;101815.28;;;15.34;51.68
54870;BME280;40756;-37.950;145.008;2022-10-15T11:10:35;101820.31;;;15.47;51.92
54870;BME280;40756;-37.950;145.008;2022-10-15T11:13:23;101826.56;;;15.45;51.94
54870;BME280;40756;-37.950;145.008;2022-10-15T11:15:59;101828.71;;;15.21;52.21
54870;BME280;40756;-37.950;145.008;2022-10-15T11:18:44;101825.86;;;15.38;51.68
54870;BME280;40756;-37.950;145.008;2022-10-15T11:21:24;101830.05;;;15.36;51.34
54870;BME280;40756;-37.950;145.008;2022-10-15T11:24:10;101834.98;;;15.70;50.47
54870;BME280;40756;-37.950;145.008;2022-10-15T11:26:53;101835.82;;;15.31;51.01
54870;BME280;40756;-37.950;145.008;2022-10-15T11:29:29;101837.02;;;15.70;50.46
54870;BME280;40756;-37.950;145.008;2022-10-15T11:32:12;101842.52;;;15.61;50.36
54870;BME280;40756;-37.950;145.008;2022-10-15T11:34:56;101849.21;;;15.81;50.01
54870;BME280;40756;-37.950;145.008;2022-10-15T11:37:40;101861.11;;;15.69;50.17
54870;BME280;40756;-37.950;145.008;2022-10-15T11:40:20;101861.03;;;15.62;50.25
54870;BME280;40756;-37.950;145.008;2022-10-15T11:42:58;101857.20;;;15.64;50.44
54870;BME280;40756;-37.950;145.008;2022-10-15T11:46:08;101852.51;;;15.96;50.36
54870;BME280;40756;-37.950;145.008;2022-10-15T11:48:47;101852.73;;;15.84;51.52
54870;BME280;40756;-37.950;145.008;2022-10-15T11:51:27;101854.93;;;15.75;52.41
54870;BME280;40756;-37.950;145.008;2022-10-15T11:54:13;101853.87;;;15.60;52.71
54870;BME280;40756;-37.950;145.008;2022-10-15T11:56:48;101855.89;;;15.54;52.75
54870;BME280;40756;-37.950;145.008;2022-10-15T11:59:28;101856.25;;;15.88;53.03
54870;BME280;40756;-37.950;145.008;2022-10-15T12:02:04;101860.46;;;15.71;53.02
54870;BME280;40756;-37.950;145.008;2022-10-15T12:04:42;101861.10;;;15.84;53.09
54870;BME280;40756;-37.950;145.008;2022-10-15T12:07:17;101858.47;;;15.77;53.37
54870;BME280;40756;-37.950;145.008;2022-10-15T12:09:54;101856.53;;;15.82;53.30
54870;BME280;40756;-37.950;145.008;2022-10-15T12:12:36;101858.09;;;15.67;53.61
54870;BME280;40756;-37.950;145.008;2022-10-15T12:15:20;101858.92;;;15.78;53.52
54870;BME280;40756;-37.950;145.008;2022-10-15T12:17:57;101851.05;;;15.66;54.16
54870;BME280;40756;-37.950;145.008;2022-10-15T12:20:30;101842.07;;;15.24;54.87
54870;BME280;40756;-37.950;145.008;2022-10-15T12:23:01;101842.33;;;15.18;55.22
54870;BME280;40756;-37.950;145.008;2022-10-15T12:25:43;101841.75;;;15.39;55.68
54870;BME280;40756;-37.950;145.008;2022-10-15T12:28:17;101844.40;;;15.41;55.50
54870;BME280;40756;-37.950;145.008;2022-10-15T12:30:56;101849.70;;;15.40;55.63
54870;BME280;40756;-37.950;145.008;2022-10-15T12:33:33;101849.92;;;15.36;55.68
54870;BME280;40756;-37.950;145.008;2022-10-15T12:36:05;101851.63;;;15.39;55.92
54870;BME280;40756;-37.950;145.008;2022-10-15T12:38:37;101852.48;;;15.54;55.64
54870;BME280;40756;-37.950;145.008;2022-10-15T12:41:10;101849.19;;;15.48;55.54
54870;BME280;40756;-37.950;145.008;2022-10-15T12:43:43;101847.07;;;15.37;55.16
54870;BME280;40756;-37.950;145.008;2022-10-15T12:46:14;101845.04;;;15.38;54.91
54870;BME280;40756;-37.950;145.008;2022-10-15T12:48:46;101841.32;;;15.49;54.51
54870;BME280;40756;-37.950;145.008;2022-10-15T12:51:31;101839.46;;;15.62;54.56